sensor_id;sensor_type;location;lat;lon;timestamp;P1;durP1;ratioP1;P2;durP2;ratioP2
80508;SDS011;69838;52.602;13.434;2023-08-06T00:00:25;12.27;;;9.80;;
80508;SDS011;69838;52.602;13.434;2023-08-06T00:01:10;12.45;;;8.73;;
80508;SDS011;69838;52.602;13.434;2023-08-06T00:01:56;10.10;;;8.93;;
80508;SDS011;69838;52.602;13.434;2023-08-06T00:02:41;11.85;;;8.80;;
80508;SDS011;69838;52.602;13.434;2023-08-06T00:03:26;12.50;;;10.88;;
80508;SDS011;69838;52.602;13.434;2023-08-06T00:04:11;12.90;;;9.75;;
80508;SDS011;69838;52.602;13.434;2023-08-06T00:04:56;12.35;;;9.60;;
80508;SDS011;69838;52.602;13.434;2023-08-06T00:05:42;12.20;;;9.25;;
80508;SDS011;69838;52.602;13.434;2023-08-06T00:06:28;11.18;;;9.00;;
80508;SDS011;69838;52.602;13.434;2023-08-06T00:07:13;11.63;;;8.85;;
80508;SDS011;69838;52.602;13.434;2023-08-06T00:07:58;11.95;;;9.18;;
80508;SDS011;69838;52.602;13.434;2023-08-06T00:08:43;14.30;;;9.68;;
80508;SDS011;69838;52.602;13.434;2023-08-06T00:09:29;11.07;;;9.57;;
80508;SDS011;69838;52.602;13.434;2023-08-06T00:10:14;14.20;;;10.75;;
80508;SDS011;69838;52.602;13.434;2023-08-06T00:10:59;13.75;;;10.02;;
80508;SDS011;69838;52.602;13.434;2023-08-06T00:11:45;11.43;;;8.65;;
80508;SDS011;69838;52.602;13.434;2023-08-06T00:12:31;11.27;;;9.18;;
80508;SDS011;69838;52.602;13.434;2023-08-06T00:13:16;12.85;;;9.43;;
80508;SDS011;69838;52.602;13.434;2023-08-06T00:14:02;10.65;;;9.45;;
80508;SDS011;69838;52.602;13.434;2023-08-06T00:14:50;13.02;;;9.77;;
80508;SDS011;69838;52.602;13.434;2023-08-06T00:15:36;12.90;;;10.13;;
80508;SDS011;69838;52.602;13.434;2023-08-06T00:16:21;13.98;;;10.30;;
80508;SDS011;69838;52.602;13.434;2023-08-06T00:17:06;12.65;;;8.75;;
80508;SDS011;69838;52.602;13.434;2023-08-06T00:17:52;13.45;;;9.70;;
80508;SDS011;69838;52.602;13.434;2023-08-06T00:18:37;12.02;;;9.10;;
80508;SDS011;69838;52.602;13.434;2023-08-06T00:19:22;12.57;;;10.35;;
80508;SDS011;69838;52.602;13.434;2023-08-06T00:20:07;13.27;;;11.30;;
80508;SDS011;69838;52.602;13.434;2023-08-06T00:20:53;14.15;;;9.23;;
80508;SDS011;69838;52.602;13.434;2023-08-06T00:21:38;11.82;;;9.40;;
80508;SDS011;69838;52.602;13.434;2023-08-06T00:22:23;13.38;;;10.23;;
80508;SDS011;69838;52.602;13.434;2023-08-06T00:23:09;13.07;;;9.90;;
80508;SDS011;69838;52.602;13.434;2023-08-06T00:23:54;13.57;;;9.60;;
80508;SDS011;69838;52.602;13.434;2023-08-06T00:24:39;13.55;;;10.63;;
80508;SDS011;69838;52.602;13.434;2023-08-06T00:25:24;14.90;;;10.07;;
80508;SDS011;69838;52.602;13.434;2023-08-06T00:26:10;13.70;;;10.45;;
80508;SDS011;69838;52.602;13.434;2023-08-06T00:26:55;15.48;;;12.23;;
80508;SDS011;69838;52.602;13.434;2023-08-06T00:27:40;13.93;;;10.18;;
80508;SDS011;69838;52.602;13.434;2023-08-06T00:28:25;12.52;;;10.23;;
80508;SDS011;69838;52.602;13.434;2023-08-06T00:29:11;11.50;;;9.77;;
80508;SDS011;69838;52.602;13.434;2023-08-06T00:29:56;11.50;;;10.18;;
80508;SDS011;69838;52.602;13.434;2023-08-06T00:30:41;14.75;;;10.68;;
80508;SDS011;69838;52.602;13.434;2023-08-06T00:31:26;12.70;;;10.27;;
80508;SDS011;69838;52.602;13.434;2023-08-06T00:32:12;14.05;;;10.32;;
80508;SDS011;69838;52.602;13.434;2023-08-06T00:32:57;11.95;;;10.65;;
80508;SDS011;69838;52.602;13.434;2023-08-06T00:33:42;11.75;;;9.80;;
80508;SDS011;69838;52.602;13.434;2023-08-06T00:34:27;12.38;;;9.70;;
80508;SDS011;69838;52.602;13.434;2023-08-06T00:35:13;12.95;;;10.13;;
80508;SDS011;69838;52.602;13.434;2023-08-06T00:35:58;11.88;;;9.85;;
80508;SDS011;69838;52.602;13.434;2023-08-06T00:36:43;12.07;;;10.77;;
80508;SDS011;69838;52.602;13.434;2023-08-06T00:37:29;14.07;;;10.75;;
80508;SDS011;69838;52.602;13.434;2023-08-06T00:38:14;12.45;;;10.38;;
80508;SDS011;69838;52.602;13.434;2023-08-06T00:38:59;13.80;;;11.30;;
80508;SDS011;69838;52.602;13.434;2023-08-06T00:39:45;11.73;;;10.45;;
80508;SDS011;69838;52.602;13.434;2023-08-06T00:40:30;13.73;;;9.90;;
80508;SDS011;69838;52.602;13.434;2023-08-06T00:41:15;11.65;;;9.82;;
80508;SDS011;69838;52.602;13.434;2023-08-06T00:42:00;14.63;;;10.65;;
80508;SDS011;69838;52.602;13.434;2023-08-06T00:42:46;12.50;;;10.30;;
80508;SDS011;69838;52.602;13.434;2023-08-06T00:43:31;11.98;;;10.20;;
80508;SDS011;69838;52.602;13.434;2023-08-06T00:44:17;14.75;;;10.98;;
80508;SDS011;69838;52.602;13.434;2023-08-06T00:45:02;13.00;;;10.55;;
80508;SDS011;69838;52.602;13.434;2023-08-06T00:45:48;12.20;;;9.95;;
80508;SDS011;69838;52.602;13.434;2023-08-06T00:46:33;13.77;;;12.00;;
80508;SDS011;69838;52.602;13.434;2023-08-06T00:47:18;13.40;;;10.23;;
80508;SDS011;69838;52.602;13.434;2023-08-06T00:48:04;14.32;;;10.40;;
80508;SDS011;69838;52.602;13.434;2023-08-06T00:48:50;14.18;;;10.07;;
80508;SDS011;69838;52.602;13.434;2023-08-06T00:49:36;13.63;;;10.18;;
80508;SDS011;69838;52.602;13.434;2023-08-06T00:50:21;13.07;;;10.93;;
80508;SDS011;69838;52.602;13.434;2023-08-06T00:51:08;12.93;;;10.52;;
80508;SDS011;69838;52.602;13.434;2023-08-06T00:51:55;12.65;;;10.40;;
80508;SDS011;69838;52.602;13.434;2023-08-06T00:52:41;13.57;;;10.55;;
80508;SDS011;69838;52.602;13.434;2023-08-06T00:53:26;13.88;;;10.63;;
80508;SDS011;69838;52.602;13.434;2023-08-06T00:54:12;12.93;;;10.95;;
80508;SDS011;69838;52.602;13.434;2023-08-06T00:54:57;14.52;;;10.90;;
80508;SDS011;69838;52.602;13.434;2023-08-06T00:55:43;14.02;;;10.93;;
80508;SDS011;69838;52.602;13.434;2023-08-06T00:56:29;13.48;;;10.82;;
80508;SDS011;69838;52.602;13.434;2023-08-06T00:57:15;16.50;;;11.77;;
80508;SDS011;69838;52.602;13.434;2023-08-06T00:58:00;14.35;;;10.77;;
80508;SDS011;69838;52.602;13.434;2023-08-06T00:58:46;10.98;;;9.73;;
80508;SDS011;69838;52.602;13.434;2023-08-06T00:59:31;13.30;;;11.13;;
80508;SDS011;69838;52.602;13.434;2023-08-06T01:00:17;13.35;;;10.95;;
80508;SDS011;69838;52.602;13.434;2023-08-06T01:01:03;12.77;;;10.35;;
80508;SDS011;69838;52.602;13.434;2023-08-06T01:01:48;13.10;;;10.80;;
80508;SDS011;69838;52.602;13.434;2023-08-06T01:02:35;13.35;;;10.90;;
80508;SDS011;69838;52.602;13.434;2023-08-06T01:03:20;14.43;;;11.27;;
80508;SDS011;69838;52.602;13.434;2023-08-06T01:04:05;12.93;;;10.77;;
80508;SDS011;69838;52.602;13.434;2023-08-06T01:04:51;13.13;;;10.50;;
80508;SDS011;69838;52.602;13.434;2023-08-06T01:05:36;13.65;;;11.40;;
80508;SDS011;69838;52.602;13.434;2023-08-06T01:06:27;13.88;;;12.23;;
80508;SDS011;69838;52.602;13.434;2023-08-06T01:07:33;13.98;;;11.70;;
80508;SDS011;69838;52.602;13.434;2023-08-06T01:08:43;15.18;;;12.43;;
80508;SDS011;69838;52.602;13.434;2023-08-06T01:09:43;12.90;;;11.02;;
80508;SDS011;69838;52.602;13.434;2023-08-06T01:10:39;14.85;;;12.98;;
80508;SDS011;69838;52.602;13.434;2023-08-06T01:12:56;14.02;;;10.60;;
80508;SDS011;69838;52.602;13.434;2023-08-06T01:14:15;14.43;;;10.75;;
80508;SDS011;69838;52.602;13.434;2023-08-06T01:15:15;14.13;;;10.55;;
80508;SDS011;69838;52.602;13.434;2023-08-06T01:16:05;15.57;;;11.73;;
80508;SDS011;69838;52.602;13.434;2023-08-06T01:16:51;13.13;;;11.55;;
80508;SDS011;69838;52.602;13.434;2023-08-06T01:17:38;14.57;;;11.48;;
80508;SDS011;69838;52.602;13.434;2023-08-06T01:18:25;14.43;;;11.55;;
80508;SDS011;69838;52.602;13.434;2023-08-06T01:19:17;15.13;;;11.40;;
80508;SDS011;69838;52.602;13.434;2023-08-06T01:20:03;13.65;;;11.48;;
80508;SDS011;69838;52.602;13.434;2023-08-06T01:20:48;13.60;;;12.10;;
80508;SDS011;69838;52.602;13.434;2023-08-06T01:21:34;13.35;;;11.68;;
80508;SDS011;69838;52.602;13.434;2023-08-06T01:22:20;13.77;;;11.40;;
80508;SDS011;69838;52.602;13.434;2023-08-06T01:23:05;15.07;;;11.75;;
80508;SDS011;69838;52.602;13.434;2023-08-06T01:23:50;13.77;;;12.38;;
80508;SDS011;69838;52.602;13.434;2023-08-06T01:24:36;15.93;;;12.02;;
80508;SDS011;69838;52.602;13.434;2023-08-06T01:25:21;13.77;;;10.95;;
80508;SDS011;69838;52.602;13.434;2023-08-06T01:26:20;13.82;;;11.57;;
80508;SDS011;69838;52.602;13.434;2023-08-06T01:27:47;14.18;;;11.68;;
80508;SDS011;69838;52.602;13.434;2023-08-06T01:28:38;15.10;;;11.05;;
80508;SDS011;69838;52.602;13.434;2023-08-06T01:30:34;14.13;;;10.85;;
80508;SDS011;69838;52.602;13.434;2023-08-06T01:31:28;14.75;;;13.02;;
80508;SDS011;69838;52.602;13.434;2023-08-06T01:32:16;14.52;;;11.60;;
80508;SDS011;69838;52.602;13.434;2023-08-06T01:33:04;15.50;;;12.00;;
80508;SDS011;69838;52.602;13.434;2023-08-06T01:33:50;16.23;;;13.95;;
80508;SDS011;69838;52.602;13.434;2023-08-06T01:34:38;16.27;;;12.35;;
80508;SDS011;69838;52.602;13.434;2023-08-06T01:35:26;12.80;;;11.40;;
80508;SDS011;69838;52.602;13.434;2023-08-06T01:36:15;16.42;;;13.38;;
80508;SDS011;69838;52.602;13.434;2023-08-06T01:37:03;16.00;;;13.38;;
80508;SDS011;69838;52.602;13.434;2023-08-06T01:37:49;14.77;;;13.18;;
80508;SDS011;69838;52.602;13.434;2023-08-06T01:38:34;17.50;;;14.43;;
80508;SDS011;69838;52.602;13.434;2023-08-06T01:39:19;15.70;;;12.85;;
80508;SDS011;69838;52.602;13.434;2023-08-06T01:40:09;14.90;;;13.18;;
80508;SDS011;69838;52.602;13.434;2023-08-06T01:40:55;15.65;;;13.80;;
80508;SDS011;69838;52.602;13.434;2023-08-06T01:41:40;16.70;;;13.27;;
80508;SDS011;69838;52.602;13.434;2023-08-06T01:42:25;14.73;;;12.77;;
80508;SDS011;69838;52.602;13.434;2023-08-06T01:43:10;19.13;;;12.65;;
80508;SDS011;69838;52.602;13.434;2023-08-06T01:43:56;16.13;;;13.13;;
80508;SDS011;69838;52.602;13.434;2023-08-06T01:44:41;17.35;;;13.18;;
80508;SDS011;69838;52.602;13.434;2023-08-06T01:45:26;14.20;;;12.38;;
80508;SDS011;69838;52.602;13.434;2023-08-06T01:46:11;16.10;;;13.05;;
80508;SDS011;69838;52.602;13.434;2023-08-06T01:46:57;14.00;;;11.98;;
80508;SDS011;69838;52.602;13.434;2023-08-06T01:47:42;16.05;;;13.43;;
80508;SDS011;69838;52.602;13.434;2023-08-06T01:48:27;17.40;;;13.27;;
80508;SDS011;69838;52.602;13.434;2023-08-06T01:49:13;14.82;;;12.07;;
80508;SDS011;69838;52.602;13.434;2023-08-06T01:49:58;16.15;;;12.68;;
80508;SDS011;69838;52.602;13.434;2023-08-06T01:50:43;14.82;;;13.10;;
80508;SDS011;69838;52.602;13.434;2023-08-06T01:51:29;15.93;;;12.27;;
80508;SDS011;69838;52.602;13.434;2023-08-06T01:52:14;16.38;;;12.98;;
80508;SDS011;69838;52.602;13.434;2023-08-06T01:52:59;14.32;;;12.50;;
80508;SDS011;69838;52.602;13.434;2023-08-06T01:53:44;15.82;;;12.95;;
80508;SDS011;69838;52.602;13.434;2023-08-06T01:54:30;15.32;;;12.80;;
80508;SDS011;69838;52.602;13.434;2023-08-06T01:55:15;15.00;;;12.95;;
80508;SDS011;69838;52.602;13.434;2023-08-06T01:56:00;15.30;;;12.48;;
80508;SDS011;69838;52.602;13.434;2023-08-06T01:56:45;15.57;;;12.38;;
80508;SDS011;69838;52.602;13.434;2023-08-06T01:57:31;14.77;;;12.57;;
80508;SDS011;69838;52.602;13.434;2023-08-06T01:58:16;16.73;;;13.45;;
80508;SDS011;69838;52.602;13.434;2023-08-06T01:59:01;15.43;;;13.13;;
80508;SDS011;69838;52.602;13.434;2023-08-06T01:59:46;14.30;;;11.85;;
80508;SDS011;69838;52.602;13.434;2023-08-06T02:00:32;15.40;;;12.95;;
80508;SDS011;69838;52.602;13.434;2023-08-06T02:01:17;14.55;;;13.02;;
80508;SDS011;69838;52.602;13.434;2023-08-06T02:02:02;14.52;;;12.85;;
80508;SDS011;69838;52.602;13.434;2023-08-06T02:02:48;17.13;;;13.50;;
80508;SDS011;69838;52.602;13.434;2023-08-06T02:03:33;14.38;;;12.45;;
80508;SDS011;69838;52.602;13.434;2023-08-06T02:04:18;16.45;;;13.05;;
80508;SDS011;69838;52.602;13.434;2023-08-06T02:05:03;16.50;;;13.57;;
80508;SDS011;69838;52.602;13.434;2023-08-06T02:05:49;14.65;;;12.88;;
80508;SDS011;69838;52.602;13.434;2023-08-06T02:06:34;16.38;;;13.90;;
80508;SDS011;69838;52.602;13.434;2023-08-06T02:07:19;14.80;;;12.95;;
80508;SDS011;69838;52.602;13.434;2023-08-06T02:08:05;14.80;;;12.70;;
80508;SDS011;69838;52.602;13.434;2023-08-06T02:08:50;15.82;;;12.88;;
80508;SDS011;69838;52.602;13.434;2023-08-06T02:09:35;17.02;;;13.45;;
80508;SDS011;69838;52.602;13.434;2023-08-06T02:10:20;18.73;;;15.30;;
80508;SDS011;69838;52.602;13.434;2023-08-06T02:11:06;14.88;;;13.00;;
80508;SDS011;69838;52.602;13.434;2023-08-06T02:11:51;15.55;;;13.05;;
80508;SDS011;69838;52.602;13.434;2023-08-06T02:12:36;17.50;;;14.52;;
80508;SDS011;69838;52.602;13.434;2023-08-06T02:13:21;15.25;;;13.65;;
80508;SDS011;69838;52.602;13.434;2023-08-06T02:14:07;16.15;;;13.80;;
80508;SDS011;69838;52.602;13.434;2023-08-06T02:14:52;17.23;;;13.82;;
80508;SDS011;69838;52.602;13.434;2023-08-06T02:15:43;18.08;;;13.77;;
80508;SDS011;69838;52.602;13.434;2023-08-06T02:16:29;16.60;;;13.18;;
80508;SDS011;69838;52.602;13.434;2023-08-06T02:17:15;15.93;;;12.80;;
80508;SDS011;69838;52.602;13.434;2023-08-06T02:18:00;14.90;;;13.18;;
80508;SDS011;69838;52.602;13.434;2023-08-06T02:18:45;15.15;;;13.13;;
80508;SDS011;69838;52.602;13.434;2023-08-06T02:19:30;17.75;;;13.57;;
80508;SDS011;69838;52.602;13.434;2023-08-06T02:20:16;14.65;;;12.32;;
80508;SDS011;69838;52.602;13.434;2023-08-06T02:21:01;15.52;;;13.20;;
80508;SDS011;69838;52.602;13.434;2023-08-06T02:21:46;17.20;;;13.93;;
80508;SDS011;69838;52.602;13.434;2023-08-06T02:22:32;15.82;;;12.45;;
80508;SDS011;69838;52.602;13.434;2023-08-06T02:23:18;17.00;;;13.70;;
80508;SDS011;69838;52.602;13.434;2023-08-06T02:24:03;16.65;;;13.85;;
80508;SDS011;69838;52.602;13.434;2023-08-06T02:24:49;16.10;;;13.55;;
80508;SDS011;69838;52.602;13.434;2023-08-06T02:25:34;16.90;;;12.98;;
80508;SDS011;69838;52.602;13.434;2023-08-06T02:26:20;16.58;;;13.32;;
80508;SDS011;69838;52.602;13.434;2023-08-06T02:27:05;16.65;;;13.18;;
80508;SDS011;69838;52.602;13.434;2023-08-06T02:27:51;15.85;;;13.43;;
80508;SDS011;69838;52.602;13.434;2023-08-06T02:28:36;17.33;;;13.63;;
80508;SDS011;69838;52.602;13.434;2023-08-06T02:29:21;16.95;;;14.13;;
80508;SDS011;69838;52.602;13.434;2023-08-06T02:30:07;17.17;;;13.68;;
80508;SDS011;69838;52.602;13.434;2023-08-06T02:30:52;17.33;;;13.13;;
80508;SDS011;69838;52.602;13.434;2023-08-06T02:31:37;16.75;;;13.45;;
80508;SDS011;69838;52.602;13.434;2023-08-06T02:32:22;16.25;;;13.52;;
80508;SDS011;69838;52.602;13.434;2023-08-06T02:33:08;17.23;;;14.00;;
80508;SDS011;69838;52.602;13.434;2023-08-06T02:33:53;16.42;;;13.63;;
80508;SDS011;69838;52.602;13.434;2023-08-06T02:34:38;16.45;;;13.85;;
80508;SDS011;69838;52.602;13.434;2023-08-06T02:35:24;17.25;;;13.35;;
80508;SDS011;69838;52.602;13.434;2023-08-06T02:36:09;19.20;;;14.55;;
80508;SDS011;69838;52.602;13.434;2023-08-06T02:36:54;19.27;;;14.43;;
80508;SDS011;69838;52.602;13.434;2023-08-06T02:37:39;17.33;;;15.40;;
80508;SDS011;69838;52.602;13.434;2023-08-06T02:38:25;17.48;;;13.93;;
80508;SDS011;69838;52.602;13.434;2023-08-06T02:39:10;17.88;;;13.43;;
80508;SDS011;69838;52.602;13.434;2023-08-06T02:39:55;16.50;;;13.63;;
80508;SDS011;69838;52.602;13.434;2023-08-06T02:40:44;17.63;;;13.70;;
80508;SDS011;69838;52.602;13.434;2023-08-06T02:41:30;17.63;;;14.48;;
80508;SDS011;69838;52.602;13.434;2023-08-06T02:42:15;17.52;;;14.52;;
80508;SDS011;69838;52.602;13.434;2023-08-06T02:43:01;17.85;;;14.27;;
80508;SDS011;69838;52.602;13.434;2023-08-06T02:43:46;17.08;;;13.05;;
80508;SDS011;69838;52.602;13.434;2023-08-06T02:44:31;19.65;;;14.20;;
80508;SDS011;69838;52.602;13.434;2023-08-06T02:45:17;18.00;;;13.25;;
80508;SDS011;69838;52.602;13.434;2023-08-06T02:46:02;15.73;;;13.07;;
80508;SDS011;69838;52.602;13.434;2023-08-06T02:46:47;15.90;;;12.95;;
80508;SDS011;69838;52.602;13.434;2023-08-06T02:47:32;15.98;;;13.05;;
80508;SDS011;69838;52.602;13.434;2023-08-06T02:48:17;16.00;;;13.23;;
80508;SDS011;69838;52.602;13.434;2023-08-06T02:49:03;15.60;;;13.32;;
80508;SDS011;69838;52.602;13.434;2023-08-06T02:49:48;16.23;;;13.38;;
80508;SDS011;69838;52.602;13.434;2023-08-06T02:50:39;17.35;;;12.93;;
80508;SDS011;69838;52.602;13.434;2023-08-06T02:51:26;15.18;;;12.68;;
80508;SDS011;69838;52.602;13.434;2023-08-06T02:52:11;15.75;;;12.73;;
80508;SDS011;69838;52.602;13.434;2023-08-06T02:52:56;16.42;;;13.63;;
80508;SDS011;69838;52.602;13.434;2023-08-06T02:53:41;14.43;;;12.82;;
80508;SDS011;69838;52.602;13.434;2023-08-06T02:54:27;17.58;;;13.40;;
80508;SDS011;69838;52.602;13.434;2023-08-06T02:55:12;15.63;;;13.07;;
80508;SDS011;69838;52.602;13.434;2023-08-06T02:55:57;15.65;;;12.90;;
80508;SDS011;69838;52.602;13.434;2023-08-06T02:56:44;16.17;;;13.25;;
80508;SDS011;69838;52.602;13.434;2023-08-06T02:57:30;17.45;;;12.95;;
80508;SDS011;69838;52.602;13.434;2023-08-06T02:58:15;15.93;;;12.48;;
80508;SDS011;69838;52.602;13.434;2023-08-06T02:59:00;16.50;;;12.73;;
80508;SDS011;69838;52.602;13.434;2023-08-06T02:59:45;15.75;;;12.70;;
80508;SDS011;69838;52.602;13.434;2023-08-06T03:00:31;15.45;;;12.65;;
80508;SDS011;69838;52.602;13.434;2023-08-06T03:01:16;15.05;;;12.65;;
80508;SDS011;69838;52.602;13.434;2023-08-06T03:02:01;15.52;;;13.00;;
80508;SDS011;69838;52.602;13.434;2023-08-06T03:02:47;14.95;;;12.32;;
80508;SDS011;69838;52.602;13.434;2023-08-06T03:03:32;16.23;;;12.30;;
80508;SDS011;69838;52.602;13.434;2023-08-06T03:04:17;15.90;;;12.77;;
80508;SDS011;69838;52.602;13.434;2023-08-06T03:05:03;15.10;;;12.57;;
80508;SDS011;69838;52.602;13.434;2023-08-06T03:05:52;17.50;;;13.13;;
80508;SDS011;69838;52.602;13.434;2023-08-06T03:06:38;14.75;;;11.93;;
80508;SDS011;69838;52.602;13.434;2023-08-06T03:07:23;14.98;;;12.70;;
80508;SDS011;69838;52.602;13.434;2023-08-06T03:08:08;14.93;;;12.05;;
80508;SDS011;69838;52.602;13.434;2023-08-06T03:08:54;15.52;;;11.60;;
80508;SDS011;69838;52.602;13.434;2023-08-06T03:09:39;15.13;;;12.52;;
80508;SDS011;69838;52.602;13.434;2023-08-06T03:10:24;15.68;;;12.82;;
80508;SDS011;69838;52.602;13.434;2023-08-06T03:11:09;16.52;;;12.80;;
80508;SDS011;69838;52.602;13.434;2023-08-06T03:11:55;15.95;;;13.18;;
80508;SDS011;69838;52.602;13.434;2023-08-06T03:12:40;17.30;;;13.25;;
80508;SDS011;69838;52.602;13.434;2023-08-06T03:13:25;15.82;;;12.40;;
80508;SDS011;69838;52.602;13.434;2023-08-06T03:14:10;18.50;;;13.73;;
80508;SDS011;69838;52.602;13.434;2023-08-06T03:14:56;16.17;;;13.45;;
80508;SDS011;69838;52.602;13.434;2023-08-06T03:15:41;17.02;;;13.20;;
80508;SDS011;69838;52.602;13.434;2023-08-06T03:16:26;17.02;;;13.68;;
80508;SDS011;69838;52.602;13.434;2023-08-06T03:17:11;15.23;;;13.02;;
80508;SDS011;69838;52.602;13.434;2023-08-06T03:17:57;16.98;;;13.75;;
80508;SDS011;69838;52.602;13.434;2023-08-06T03:18:42;16.70;;;13.15;;
80508;SDS011;69838;52.602;13.434;2023-08-06T03:19:27;16.73;;;13.13;;
80508;SDS011;69838;52.602;13.434;2023-08-06T03:20:13;17.23;;;13.70;;
80508;SDS011;69838;52.602;13.434;2023-08-06T03:20:58;20.63;;;16.05;;
80508;SDS011;69838;52.602;13.434;2023-08-06T03:21:43;17.95;;;13.13;;
80508;SDS011;69838;52.602;13.434;2023-08-06T03:22:28;15.98;;;13.43;;
80508;SDS011;69838;52.602;13.434;2023-08-06T03:23:14;16.95;;;13.27;;
80508;SDS011;69838;52.602;13.434;2023-08-06T03:23:59;16.75;;;13.95;;
80508;SDS011;69838;52.602;13.434;2023-08-06T03:24:44;17.27;;;13.65;;
80508;SDS011;69838;52.602;13.434;2023-08-06T03:25:29;18.40;;;13.05;;
80508;SDS011;69838;52.602;13.434;2023-08-06T03:26:15;17.15;;;13.15;;
80508;SDS011;69838;52.602;13.434;2023-08-06T03:27:00;17.33;;;13.98;;
80508;SDS011;69838;52.602;13.434;2023-08-06T03:27:45;19.77;;;13.80;;
80508;SDS011;69838;52.602;13.434;2023-08-06T03:28:30;16.63;;;13.35;;
80508;SDS011;69838;52.602;13.434;2023-08-06T03:29:15;16.27;;;13.60;;
80508;SDS011;69838;52.602;13.434;2023-08-06T03:30:01;16.85;;;12.70;;
80508;SDS011;69838;52.602;13.434;2023-08-06T03:30:46;16.75;;;13.52;;
80508;SDS011;69838;52.602;13.434;2023-08-06T03:31:31;16.73;;;13.13;;
80508;SDS011;69838;52.602;13.434;2023-08-06T03:32:16;18.17;;;13.88;;
80508;SDS011;69838;52.602;13.434;2023-08-06T03:33:02;16.50;;;13.60;;
80508;SDS011;69838;52.602;13.434;2023-08-06T03:33:47;16.80;;;13.02;;
80508;SDS011;69838;52.602;13.434;2023-08-06T03:34:32;16.67;;;14.00;;
80508;SDS011;69838;52.602;13.434;2023-08-06T03:35:17;20.02;;;14.57;;
80508;SDS011;69838;52.602;13.434;2023-08-06T03:36:03;15.40;;;13.05;;
80508;SDS011;69838;52.602;13.434;2023-08-06T03:36:48;19.67;;;13.38;;
80508;SDS011;69838;52.602;13.434;2023-08-06T03:37:33;17.20;;;13.38;;
80508;SDS011;69838;52.602;13.434;2023-08-06T03:38:19;16.90;;;12.90;;
80508;SDS011;69838;52.602;13.434;2023-08-06T03:39:04;19.13;;;14.15;;
80508;SDS011;69838;52.602;13.434;2023-08-06T03:39:49;17.73;;;13.77;;
80508;SDS011;69838;52.602;13.434;2023-08-06T03:40:35;18.05;;;14.20;;
80508;SDS011;69838;52.602;13.434;2023-08-06T03:41:21;18.90;;;13.85;;
80508;SDS011;69838;52.602;13.434;2023-08-06T03:42:06;19.33;;;14.43;;
80508;SDS011;69838;52.602;13.434;2023-08-06T03:42:51;18.65;;;14.35;;
80508;SDS011;69838;52.602;13.434;2023-08-06T03:43:36;19.73;;;14.48;;
80508;SDS011;69838;52.602;13.434;2023-08-06T03:44:22;19.80;;;14.57;;
80508;SDS011;69838;52.602;13.434;2023-08-06T03:45:07;20.63;;;15.18;;
80508;SDS011;69838;52.602;13.434;2023-08-06T03:45:53;19.00;;;14.65;;
80508;SDS011;69838;52.602;13.434;2023-08-06T03:46:38;19.00;;;15.65;;
80508;SDS011;69838;52.602;13.434;2023-08-06T03:47:23;18.00;;;14.27;;
80508;SDS011;69838;52.602;13.434;2023-08-06T03:48:08;19.27;;;14.43;;
80508;SDS011;69838;52.602;13.434;2023-08-06T03:48:54;17.50;;;14.48;;
80508;SDS011;69838;52.602;13.434;2023-08-06T03:49:39;19.33;;;14.07;;
80508;SDS011;69838;52.602;13.434;2023-08-06T03:50:24;17.17;;;13.63;;
80508;SDS011;69838;52.602;13.434;2023-08-06T03:51:09;19.63;;;14.23;;
80508;SDS011;69838;52.602;13.434;2023-08-06T03:51:55;18.50;;;14.07;;
80508;SDS011;69838;52.602;13.434;2023-08-06T03:52:40;19.27;;;15.00;;
80508;SDS011;69838;52.602;13.434;2023-08-06T03:53:25;20.20;;;15.23;;
80508;SDS011;69838;52.602;13.434;2023-08-06T03:54:10;18.98;;;14.65;;
80508;SDS011;69838;52.602;13.434;2023-08-06T03:54:56;18.60;;;13.93;;
80508;SDS011;69838;52.602;13.434;2023-08-06T03:55:41;18.30;;;13.77;;
80508;SDS011;69838;52.602;13.434;2023-08-06T03:56:26;22.35;;;14.77;;
80508;SDS011;69838;52.602;13.434;2023-08-06T03:57:12;21.35;;;15.43;;
80508;SDS011;69838;52.602;13.434;2023-08-06T03:57:57;19.15;;;16.23;;
80508;SDS011;69838;52.602;13.434;2023-08-06T03:58:43;21.23;;;14.55;;
80508;SDS011;69838;52.602;13.434;2023-08-06T03:59:28;19.73;;;14.95;;
80508;SDS011;69838;52.602;13.434;2023-08-06T04:00:13;20.90;;;15.57;;
80508;SDS011;69838;52.602;13.434;2023-08-06T04:00:59;19.67;;;14.85;;
80508;SDS011;69838;52.602;13.434;2023-08-06T04:01:45;19.23;;;14.40;;
80508;SDS011;69838;52.602;13.434;2023-08-06T04:02:30;19.55;;;13.88;;
80508;SDS011;69838;52.602;13.434;2023-08-06T04:03:15;18.95;;;14.52;;
80508;SDS011;69838;52.602;13.434;2023-08-06T04:04:01;17.63;;;13.52;;
80508;SDS011;69838;52.602;13.434;2023-08-06T04:04:47;19.63;;;14.88;;
80508;SDS011;69838;52.602;13.434;2023-08-06T04:05:32;19.08;;;14.68;;
80508;SDS011;69838;52.602;13.434;2023-08-06T04:06:18;18.35;;;14.00;;
80508;SDS011;69838;52.602;13.434;2023-08-06T04:07:03;19.05;;;14.30;;
80508;SDS011;69838;52.602;13.434;2023-08-06T04:07:49;16.67;;;13.65;;
80508;SDS011;69838;52.602;13.434;2023-08-06T04:08:34;16.63;;;12.75;;
80508;SDS011;69838;52.602;13.434;2023-08-06T04:09:19;17.13;;;14.18;;
80508;SDS011;69838;52.602;13.434;2023-08-06T04:10:04;17.42;;;13.60;;
80508;SDS011;69838;52.602;13.434;2023-08-06T04:10:53;16.65;;;13.30;;
80508;SDS011;69838;52.602;13.434;2023-08-06T04:11:39;16.63;;;12.93;;
80508;SDS011;69838;52.602;13.434;2023-08-06T04:12:24;16.70;;;13.15;;
80508;SDS011;69838;52.602;13.434;2023-08-06T04:13:09;18.27;;;14.10;;
80508;SDS011;69838;52.602;13.434;2023-08-06T04:13:54;18.08;;;13.35;;
80508;SDS011;69838;52.602;13.434;2023-08-06T04:14:40;18.45;;;13.98;;
80508;SDS011;69838;52.602;13.434;2023-08-06T04:15:25;16.58;;;13.23;;
80508;SDS011;69838;52.602;13.434;2023-08-06T04:16:10;18.08;;;13.57;;
80508;SDS011;69838;52.602;13.434;2023-08-06T04:16:56;16.13;;;13.05;;
80508;SDS011;69838;52.602;13.434;2023-08-06T04:17:41;17.30;;;12.85;;
80508;SDS011;69838;52.602;13.434;2023-08-06T04:18:26;16.48;;;13.02;;
80508;SDS011;69838;52.602;13.434;2023-08-06T04:19:11;16.60;;;12.77;;
80508;SDS011;69838;52.602;13.434;2023-08-06T04:19:57;16.35;;;13.10;;
80508;SDS011;69838;52.602;13.434;2023-08-06T04:20:45;16.77;;;12.73;;
80508;SDS011;69838;52.602;13.434;2023-08-06T04:21:31;16.55;;;12.90;;
80508;SDS011;69838;52.602;13.434;2023-08-06T04:22:17;17.88;;;14.05;;
80508;SDS011;69838;52.602;13.434;2023-08-06T04:23:05;16.67;;;13.15;;
80508;SDS011;69838;52.602;13.434;2023-08-06T04:23:51;17.73;;;13.25;;
80508;SDS011;69838;52.602;13.434;2023-08-06T04:24:36;18.20;;;13.48;;
80508;SDS011;69838;52.602;13.434;2023-08-06T04:25:22;18.10;;;13.88;;
80508;SDS011;69838;52.602;13.434;2023-08-06T04:26:08;17.77;;;13.95;;
80508;SDS011;69838;52.602;13.434;2023-08-06T04:26:53;18.08;;;13.38;;
80508;SDS011;69838;52.602;13.434;2023-08-06T04:27:38;15.77;;;13.32;;
80508;SDS011;69838;52.602;13.434;2023-08-06T04:28:26;17.02;;;14.02;;
80508;SDS011;69838;52.602;13.434;2023-08-06T04:29:11;16.45;;;12.98;;